sensor_id;sensor_type;location;lat;lon;timestamp;temperature;humidity
51029;DHT22;37054;52.054;8.600;2024-03-23T00:54:15;11.80;69.40
51029;DHT22;37054;52.054;8.600;2024-03-23T00:56:40;11.70;69.60
51029;DHT22;37054;52.054;8.600;2024-03-23T00:59:06;11.80;69.70
51029;DHT22;37054;52.054;8.600;2024-03-23T01:01:31;11.80;69.80
51029;DHT22;37054;52.054;8.600;2024-03-23T01:03:57;11.80;69.80
51029;DHT22;37054;52.054;8.600;2024-03-23T01:06:22;11.80;69.70
51029;DHT22;37054;52.054;8.600;2024-03-23T01:08:48;11.80;69.60
51029;DHT22;37054;52.054;8.600;2024-03-23T01:11:13;11.70;69.60
51029;DHT22;37054;52.054;8.600;2024-03-23T01:13:39;11.70;69.70
51029;DHT22;37054;52.054;8.600;2024-03-23T01:16:05;11.70;69.80
51029;DHT22;37054;52.054;8.600;2024-03-23T01:18:30;11.70;69.70
51029;DHT22;37054;52.054;8.600;2024-03-23T01:20:56;11.70;69.70
51029;DHT22;37054;52.054;8.600;2024-03-23T01:23:21;11.70;69.80
51029;DHT22;37054;52.054;8.600;2024-03-23T01:25:53;11.70;69.80
51029;DHT22;37054;52.054;8.600;2024-03-23T01:28:20;11.70;69.80
51029;DHT22;37054;52.054;8.600;2024-03-23T01:30:46;11.70;69.90
51029;DHT22;37054;52.054;8.600;2024-03-23T01:33:11;11.70;69.90
51029;DHT22;37054;52.054;8.600;2024-03-23T01:35:37;11.70;69.90
51029;DHT22;37054;52.054;8.600;2024-03-23T01:38:03;11.70;69.90
51029;DHT22;37054;52.054;8.600;2024-03-23T01:40:29;11.70;69.80
51029;DHT22;37054;52.054;8.600;2024-03-23T01:43:04;11.70;69.80
51029;DHT22;37054;52.054;8.600;2024-03-23T01:45:31;11.70;69.90
51029;DHT22;37054;52.054;8.600;2024-03-23T01:47:58;11.70;69.80
51029;DHT22;37054;52.054;8.600;2024-03-23T01:50:24;11.70;69.80
51029;DHT22;37054;52.054;8.600;2024-03-23T01:52:50;11.70;69.70
51029;DHT22;37054;52.054;8.600;2024-03-23T01:55:16;11.70;69.80
51029;DHT22;37054;52.054;8.600;2024-03-23T01:57:42;11.70;69.80
51029;DHT22;37054;52.054;8.600;2024-03-23T02:00:08;11.70;69.80
51029;DHT22;37054;52.054;8.600;2024-03-23T02:02:43;11.70;69.80
51029;DHT22;37054;52.054;8.600;2024-03-23T02:05:09;11.70;69.90
51029;DHT22;37054;52.054;8.600;2024-03-23T02:07:34;11.60;69.80
51029;DHT22;37054;52.054;8.600;2024-03-23T02:10:01;11.60;69.90
51029;DHT22;37054;52.054;8.600;2024-03-23T02:12:26;11.60;69.90
51029;DHT22;37054;52.054;8.600;2024-03-23T02:14:52;11.60;69.90
51029;DHT22;37054;52.054;8.600;2024-03-23T02:17:17;11.60;69.90
51029;DHT22;37054;52.054;8.600;2024-03-23T02:19:43;11.60;69.90
51029;DHT22;37054;52.054;8.600;2024-03-23T02:22:08;11.60;70.00
51029;DHT22;37054;52.054;8.600;2024-03-23T02:24:36;11.60;70.00
51029;DHT22;37054;52.054;8.600;2024-03-23T02:27:02;11.60;70.00
51029;DHT22;37054;52.054;8.600;2024-03-23T02:29:28;11.50;69.90
51029;DHT22;37054;52.054;8.600;2024-03-23T02:31:53;11.60;70.00
51029;DHT22;37054;52.054;8.600;2024-03-23T02:34:19;11.60;70.00
51029;DHT22;37054;52.054;8.600;2024-03-23T02:36:44;11.50;69.80
51029;DHT22;37054;52.054;8.600;2024-03-23T02:39:10;11.50;69.90
51029;DHT22;37054;52.054;8.600;2024-03-23T02:41:36;11.50;69.90
51029;DHT22;37054;52.054;8.600;2024-03-23T02:44:02;11.50;70.00
51029;DHT22;37054;52.054;8.600;2024-03-23T02:46:27;11.50;69.90
51029;DHT22;37054;52.054;8.600;2024-03-23T02:48:53;11.50;69.90
51029;DHT22;37054;52.054;8.600;2024-03-23T02:51:18;11.40;69.90
51029;DHT22;37054;52.054;8.600;2024-03-23T02:53:44;11.40;70.00
51029;DHT22;37054;52.054;8.600;2024-03-23T02:56:09;11.40;70.00
51029;DHT22;37054;52.054;8.600;2024-03-23T02:58:39;11.40;70.00
51029;DHT22;37054;52.054;8.600;2024-03-23T03:01:04;11.40;70.00
51029;DHT22;37054;52.054;8.600;2024-03-23T03:03:30;11.30;69.90
51029;DHT22;37054;52.054;8.600;2024-03-23T03:05:56;11.30;69.90
51029;DHT22;37054;52.054;8.600;2024-03-23T03:08:22;11.40;69.90
51029;DHT22;37054;52.054;8.600;2024-03-23T03:10:47;11.30;69.90
51029;DHT22;37054;52.054;8.600;2024-03-23T03:13:13;11.30;69.80
51029;DHT22;37054;52.054;8.600;2024-03-23T03:15:43;11.30;69.60
51029;DHT22;37054;52.054;8.600;2024-03-23T03:18:09;11.20;69.50
51029;DHT22;37054;52.054;8.600;2024-03-23T03:20:39;11.20;69.60
51029;DHT22;37054;52.054;8.600;2024-03-23T03:23:06;11.20;69.80
51029;DHT22;37054;52.054;8.600;2024-03-23T03:25:32;11.20;69.80
51029;DHT22;37054;52.054;8.600;2024-03-23T03:27:57;11.20;69.90
51029;DHT22;37054;52.054;8.600;2024-03-23T03:30:23;11.20;69.90
51029;DHT22;37054;52.054;8.600;2024-03-23T03:32:49;11.20;69.90
51029;DHT22;37054;52.054;8.600;2024-03-23T03:35:15;11.20;69.70
51029;DHT22;37054;52.054;8.600;2024-03-23T03:37:40;11.20;69.80
51029;DHT22;37054;52.054;8.600;2024-03-23T03:40:06;11.10;69.70
51029;DHT22;37054;52.054;8.600;2024-03-23T03:42:34;11.10;69.90
51029;DHT22;37054;52.054;8.600;2024-03-23T03:45:00;11.20;69.80
51029;DHT22;37054;52.054;8.600;2024-03-23T03:47:25;11.10;69.90
51029;DHT22;37054;52.054;8.600;2024-03-23T03:49:51;11.10;69.80
51029;DHT22;37054;52.054;8.600;2024-03-23T03:52:16;11.10;69.80
51029;DHT22;37054;52.054;8.600;2024-03-23T03:54:42;11.10;69.60
51029;DHT22;37054;52.054;8.600;2024-03-23T03:57:07;11.00;69.60
51029;DHT22;37054;52.054;8.600;2024-03-23T03:59:33;11.00;69.70
51029;DHT22;37054;52.054;8.600;2024-03-23T04:01:58;11.00;69.70
51029;DHT22;37054;52.054;8.600;2024-03-23T04:04:24;11.00;69.80
51029;DHT22;37054;52.054;8.600;2024-03-23T04:06:49;11.00;69.80
51029;DHT22;37054;52.054;8.600;2024-03-23T04:09:15;11.00;69.70
51029;DHT22;37054;52.054;8.600;2024-03-23T04:11:40;11.00;69.70
51029;DHT22;37054;52.054;8.600;2024-03-23T04:14:06;11.00;69.70
51029;DHT22;37054;52.054;8.600;2024-03-23T04:16:35;11.00;69.60
51029;DHT22;37054;52.054;8.600;2024-03-23T04:19:00;11.00;69.60
51029;DHT22;37054;52.054;8.600;2024-03-23T04:21:26;10.90;69.60
51029;DHT22;37054;52.054;8.600;2024-03-23T04:23:52;10.90;69.60
51029;DHT22;37054;52.054;8.600;2024-03-23T04:26:17;10.90;69.60
51029;DHT22;37054;52.054;8.600;2024-03-23T04:28:43;10.90;69.50
51029;DHT22;37054;52.054;8.600;2024-03-23T04:31:09;10.90;69.50
51029;DHT22;37054;52.054;8.600;2024-03-23T04:33:34;10.90;69.60
51029;DHT22;37054;52.054;8.600;2024-03-23T04:36:00;10.90;69.60
51029;DHT22;37054;52.054;8.600;2024-03-23T04:38:25;10.90;69.60
51029;DHT22;37054;52.054;8.600;2024-03-23T04:40:58;10.90;69.50
51029;DHT22;37054;52.054;8.600;2024-03-23T04:43:24;10.80;69.60
51029;DHT22;37054;52.054;8.600;2024-03-23T04:45:50;10.80;69.50
51029;DHT22;37054;52.054;8.600;2024-03-23T04:48:16;10.80;69.60
51029;DHT22;37054;52.054;8.600;2024-03-23T04:50:41;10.80;69.60
51029;DHT22;37054;52.054;8.600;2024-03-23T04:53:07;10.80;69.60
51029;DHT22;37054;52.054;8.600;2024-03-23T04:55:33;10.80;69.50
51029;DHT22;37054;52.054;8.600;2024-03-23T04:57:58;10.80;69.60
51029;DHT22;37054;52.054;8.600;2024-03-23T05:00:24;10.80;69.60
51029;DHT22;37054;52.054;8.600;2024-03-23T05:02:50;10.80;69.60
51029;DHT22;37054;52.054;8.600;2024-03-23T05:05:16;10.80;69.60
51029;DHT22;37054;52.054;8.600;2024-03-23T05:07:41;10.80;69.50
51029;DHT22;37054;52.054;8.600;2024-03-23T05:10:08;10.80;69.50
51029;DHT22;37054;52.054;8.600;2024-03-23T05:12:37;10.70;69.50
51029;DHT22;37054;52.054;8.600;2024-03-23T05:15:03;10.80;69.60
51029;DHT22;37054;52.054;8.600;2024-03-23T05:17:28;10.70;69.60
51029;DHT22;37054;52.054;8.600;2024-03-23T05:19:54;10.70;69.50
51029;DHT22;37054;52.054;8.600;2024-03-23T05:22:19;10.70;69.50
51029;DHT22;37054;52.054;8.600;2024-03-23T05:24:45;10.70;69.50
51029;DHT22;37054;52.054;8.600;2024-03-23T05:27:11;10.80;69.50
51029;DHT22;37054;52.054;8.600;2024-03-23T05:29:37;10.70;69.40
51029;DHT22;37054;52.054;8.600;2024-03-23T05:32:03;10.70;69.40
51029;DHT22;37054;52.054;8.600;2024-03-23T05:34:28;10.70;69.30
51029;DHT22;37054;52.054;8.600;2024-03-23T05:36:54;10.70;69.30
51029;DHT22;37054;52.054;8.600;2024-03-23T05:39:20;10.70;69.30
51029;DHT22;37054;52.054;8.600;2024-03-23T05:41:48;10.60;69.30
51029;DHT22;37054;52.054;8.600;2024-03-23T05:44:13;10.60;69.20
51029;DHT22;37054;52.054;8.600;2024-03-23T05:46:40;10.60;69.30
51029;DHT22;37054;52.054;8.600;2024-03-23T05:49:06;10.60;69.40
51029;DHT22;37054;52.054;8.600;2024-03-23T05:51:31;10.70;69.50
51029;DHT22;37054;52.054;8.600;2024-03-23T05:53:57;10.70;69.60
51029;DHT22;37054;52.054;8.600;2024-03-23T05:56:22;10.70;69.60
51029;DHT22;37054;52.054;8.600;2024-03-23T05:58:48;10.70;69.60
51029;DHT22;37054;52.054;8.600;2024-03-23T06:01:14;10.70;69.60
51029;DHT22;37054;52.054;8.600;2024-03-23T06:03:39;10.70;69.60
51029;DHT22;37054;52.054;8.600;2024-03-23T06:06:05;10.70;69.60
51029;DHT22;37054;52.054;8.600;2024-03-23T06:08:35;10.70;69.70
51029;DHT22;37054;52.054;8.600;2024-03-23T06:11:01;10.80;69.80
51029;DHT22;37054;52.054;8.600;2024-03-23T06:13:27;10.80;69.90
51029;DHT22;37054;52.054;8.600;2024-03-23T06:15:55;10.80;69.80
51029;DHT22;37054;52.054;8.600;2024-03-23T06:18:21;10.80;69.90
51029;DHT22;37054;52.054;8.600;2024-03-23T06:20:46;10.80;69.90
51029;DHT22;37054;52.054;8.600;2024-03-23T06:23:12;10.80;69.80
51029;DHT22;37054;52.054;8.600;2024-03-23T06:25:38;10.80;69.70
51029;DHT22;37054;52.054;8.600;2024-03-23T06:28:04;10.90;69.70
51029;DHT22;37054;52.054;8.600;2024-03-23T06:30:30;10.90;69.90
51029;DHT22;37054;52.054;8.600;2024-03-23T06:32:57;11.00;69.90
51029;DHT22;37054;52.054;8.600;2024-03-23T06:35:22;11.10;70.10
51029;DHT22;37054;52.054;8.600;2024-03-23T06:37:48;11.10;70.20
51029;DHT22;37054;52.054;8.600;2024-03-23T06:40:14;11.20;70.30
51029;DHT22;37054;52.054;8.600;2024-03-23T06:42:39;11.30;70.30
51029;DHT22;37054;52.054;8.600;2024-03-23T06:45:06;11.40;70.40
51029;DHT22;37054;52.054;8.600;2024-03-23T06:47:32;11.40;70.20
51029;DHT22;37054;52.054;8.600;2024-03-23T06:49:59;11.50;70.20
51029;DHT22;37054;52.054;8.600;2024-03-23T06:52:27;11.50;70.20
51029;DHT22;37054;52.054;8.600;2024-03-23T06:54:53;11.60;70.10
51029;DHT22;37054;52.054;8.600;2024-03-23T06:57:18;11.70;70.40
51029;DHT22;37054;52.054;8.600;2024-03-23T06:59:44;11.80;70.30
51029;DHT22;37054;52.054;8.600;2024-03-23T07:02:10;11.90;70.30
51029;DHT22;37054;52.054;8.600;2024-03-23T07:04:36;11.90;70.20
51029;DHT22;37054;52.054;8.600;2024-03-23T07:07:02;12.00;70.00
51029;DHT22;37054;52.054;8.600;2024-03-23T07:09:28;12.00;70.00
51029;DHT22;37054;52.054;8.600;2024-03-23T07:11:55;12.10;70.10
51029;DHT22;37054;52.054;8.600;2024-03-23T07:14:22;12.30;70.50
51029;DHT22;37054;52.054;8.600;2024-03-23T07:16:48;12.50;70.80
51029;DHT22;37054;52.054;8.600;2024-03-23T07:19:17;12.80;70.90
51029;DHT22;37054;52.054;8.600;2024-03-23T07:21:44;12.90;70.30
51029;DHT22;37054;52.054;8.600;2024-03-23T07:24:10;12.90;70.00
51029;DHT22;37054;52.054;8.600;2024-03-23T07:26:36;12.90;69.50
51029;DHT22;37054;52.054;8.600;2024-03-23T07:29:03;13.00;70.00
51029;DHT22;37054;52.054;8.600;2024-03-23T07:31:28;13.20;71.50
51029;DHT22;37054;52.054;8.600;2024-03-23T07:33:54;13.60;71.60
51029;DHT22;37054;52.054;8.600;2024-03-23T07:36:20;13.80;71.80
51029;DHT22;37054;52.054;8.600;2024-03-23T07:38:45;14.10;72.30
51029;DHT22;37054;52.054;8.600;2024-03-23T07:41:15;14.30;71.40
51029;DHT22;37054;52.054;8.600;2024-03-23T07:43:42;14.40;71.10
51029;DHT22;37054;52.054;8.600;2024-03-23T07:46:08;14.50;71.40
51029;DHT22;37054;52.054;8.600;2024-03-23T07:48:34;14.80;71.60
51029;DHT22;37054;52.054;8.600;2024-03-23T07:51:10;14.90;71.60
51029;DHT22;37054;52.054;8.600;2024-03-23T07:53:37;15.00;71.30
51029;DHT22;37054;52.054;8.600;2024-03-23T07:56:07;15.10;71.40
51029;DHT22;37054;52.054;8.600;2024-03-23T07:58:33;15.10;71.20
51029;DHT22;37054;52.054;8.600;2024-03-23T08:01:13;15.20;70.70
51029;DHT22;37054;52.054;8.600;2024-03-23T08:03:41;15.20;70.70
51029;DHT22;37054;52.054;8.600;2024-03-23T08:06:17;15.30;70.80
51029;DHT22;37054;52.054;8.600;2024-03-23T08:08:46;15.30;70.20
51029;DHT22;37054;52.054;8.600;2024-03-23T08:11:12;15.20;70.40
51029;DHT22;37054;52.054;8.600;2024-03-23T08:13:42;15.30;71.20
51029;DHT22;37054;52.054;8.600;2024-03-23T08:16:08;15.80;73.00
51029;DHT22;37054;52.054;8.600;2024-03-23T08:18:54;16.30;72.40
51029;DHT22;37054;52.054;8.600;2024-03-23T08:21:21;16.50;71.00
51029;DHT22;37054;52.054;8.600;2024-03-23T08:23:47;16.30;69.90
51029;DHT22;37054;52.054;8.600;2024-03-23T08:26:15;16.20;69.50
51029;DHT22;37054;52.054;8.600;2024-03-23T08:28:41;16.20;70.30
51029;DHT22;37054;52.054;8.600;2024-03-23T08:31:10;16.30;70.90
51029;DHT22;37054;52.054;8.600;2024-03-23T08:33:36;16.70;71.40
51029;DHT22;37054;52.054;8.600;2024-03-23T08:36:03;16.90;70.50
51029;DHT22;37054;52.054;8.600;2024-03-23T08:38:29;16.90;70.20
51029;DHT22;37054;52.054;8.600;2024-03-23T08:43:23;17.10;71.80
51029;DHT22;37054;52.054;8.600;2024-03-23T08:45:49;17.40;71.90
51029;DHT22;37054;52.054;8.600;2024-03-23T08:48:15;17.60;70.80
51029;DHT22;37054;52.054;8.600;2024-03-23T08:50:40;17.70;69.50
51029;DHT22;37054;52.054;8.600;2024-03-23T08:53:06;17.60;69.30
51029;DHT22;37054;52.054;8.600;2024-03-23T08:55:31;17.60;68.90
51029;DHT22;37054;52.054;8.600;2024-03-23T08:57:57;17.50;69.20
51029;DHT22;37054;52.054;8.600;2024-03-23T09:00:22;17.60;69.10
51029;DHT22;37054;52.054;8.600;2024-03-23T09:02:48;17.50;68.50
51029;DHT22;37054;52.054;8.600;2024-03-23T09:05:14;17.30;68.60
51029;DHT22;37054;52.054;8.600;2024-03-23T09:07:39;17.20;68.00
51029;DHT22;37054;52.054;8.600;2024-03-23T09:10:06;17.10;69.50
51029;DHT22;37054;52.054;8.600;2024-03-23T09:12:32;17.40;69.90
51029;DHT22;37054;52.054;8.600;2024-03-23T09:14:58;17.60;70.50
51029;DHT22;37054;52.054;8.600;2024-03-23T09:17:23;17.80;70.40
51029;DHT22;37054;52.054;8.600;2024-03-23T09:19:49;17.90;70.70
51029;DHT22;37054;52.054;8.600;2024-03-23T09:22:14;18.10;70.20
51029;DHT22;37054;52.054;8.600;2024-03-23T09:24:40;18.40;71.10
51029;DHT22;37054;52.054;8.600;2024-03-23T09:27:06;18.60;68.60
51029;DHT22;37054;52.054;8.600;2024-03-23T09:29:31;18.50;67.30
51029;DHT22;37054;52.054;8.600;2024-03-23T09:31:57;18.20;66.80
51029;DHT22;37054;52.054;8.600;2024-03-23T09:34:22;17.80;66.20
51029;DHT22;37054;52.054;8.600;2024-03-23T09:36:51;17.70;68.60
51029;DHT22;37054;52.054;8.600;2024-03-23T09:39:17;18.00;71.30
51029;DHT22;37054;52.054;8.600;2024-03-23T09:41:43;18.40;71.90
51029;DHT22;37054;52.054;8.600;2024-03-23T09:44:08;18.90;72.70
51029;DHT22;37054;52.054;8.600;2024-03-23T09:46:34;19.20;70.60
51029;DHT22;37054;52.054;8.600;2024-03-23T09:49:02;19.00;66.80
51029;DHT22;37054;52.054;8.600;2024-03-23T09:51:30;18.60;64.70
51029;DHT22;37054;52.054;8.600;2024-03-23T09:53:56;18.10;64.20
51029;DHT22;37054;52.054;8.600;2024-03-23T09:56:22;17.70;65.20
51029;DHT22;37054;52.054;8.600;2024-03-23T09:58:49;17.90;71.10
51029;DHT22;37054;52.054;8.600;2024-03-23T10:01:14;18.50;73.40
51029;DHT22;37054;52.054;8.600;2024-03-23T10:03:46;19.10;72.90
51029;DHT22;37054;52.054;8.600;2024-03-23T10:06:12;19.40;71.20
51029;DHT22;37054;52.054;8.600;2024-03-23T10:08:38;19.70;70.30
51029;DHT22;37054;52.054;8.600;2024-03-23T10:11:16;19.90;68.80
51029;DHT22;37054;52.054;8.600;2024-03-23T10:13:43;19.90;67.80
51029;DHT22;37054;52.054;8.600;2024-03-23T10:16:09;20.10;69.40
51029;DHT22;37054;52.054;8.600;2024-03-23T10:18:39;20.40;68.90
51029;DHT22;37054;52.054;8.600;2024-03-23T10:21:11;20.40;66.00
51029;DHT22;37054;52.054;8.600;2024-03-23T10:23:41;20.60;67.40
51029;DHT22;37054;52.054;8.600;2024-03-23T10:26:18;21.00;67.10
51029;DHT22;37054;52.054;8.600;2024-03-23T10:29:00;21.20;64.30
51029;DHT22;37054;52.054;8.600;2024-03-23T10:31:33;21.70;65.50
51029;DHT22;37054;52.054;8.600;2024-03-23T10:33:59;22.10;65.80
51029;DHT22;37054;52.054;8.600;2024-03-23T10:36:26;22.20;62.20
51029;DHT22;37054;52.054;8.600;2024-03-23T10:38:54;22.00;61.50
51029;DHT22;37054;52.054;8.600;2024-03-23T10:41:19;21.70;62.20
51029;DHT22;37054;52.054;8.600;2024-03-23T10:43:46;21.50;62.60
51029;DHT22;37054;52.054;8.600;2024-03-23T10:46:12;21.50;62.10
51029;DHT22;37054;52.054;8.600;2024-03-23T10:48:38;21.30;61.70
51029;DHT22;37054;52.054;8.600;2024-03-23T10:51:07;20.80;61.00
51029;DHT22;37054;52.054;8.600;2024-03-23T10:53:33;20.80;63.40
51029;DHT22;37054;52.054;8.600;2024-03-23T10:55:59;20.90;63.70
51029;DHT22;37054;52.054;8.600;2024-03-23T10:58:35;21.10;63.20
51029;DHT22;37054;52.054;8.600;2024-03-23T11:01:02;21.40;63.10
51029;DHT22;37054;52.054;8.600;2024-03-23T11:03:36;21.80;60.90
51029;DHT22;37054;52.054;8.600;2024-03-23T11:06:03;22.20;58.70
51029;DHT22;37054;52.054;8.600;2024-03-23T11:08:39;22.50;57.70
51029;DHT22;37054;52.054;8.600;2024-03-23T11:11:20;22.70;56.80
51029;DHT22;37054;52.054;8.600;2024-03-23T11:13:53;22.80;56.80
51029;DHT22;37054;52.054;8.600;2024-03-23T11:16:26;23.00;56.00
51029;DHT22;37054;52.054;8.600;2024-03-23T11:19:33;23.20;56.20
51029;DHT22;37054;52.054;8.600;2024-03-23T11:21:58;23.40;54.10
51029;DHT22;37054;52.054;8.600;2024-03-23T11:24:24;23.40;50.00
51029;DHT22;37054;52.054;8.600;2024-03-23T11:26:50;23.30;50.60
51029;DHT22;37054;52.054;8.600;2024-03-23T11:29:16;22.70;48.60
51029;DHT22;37054;52.054;8.600;2024-03-23T11:31:49;21.50;50.00
51029;DHT22;37054;52.054;8.600;2024-03-23T11:34:18;20.30;50.80
51029;DHT22;37054;52.054;8.600;2024-03-23T11:36:45;19.20;52.00
51029;DHT22;37054;52.054;8.600;2024-03-23T11:39:18;18.00;50.80
51029;DHT22;37054;52.054;8.600;2024-03-23T11:41:48;17.00;53.70
51029;DHT22;37054;52.054;8.600;2024-03-23T11:44:18;16.30;56.20
51029;DHT22;37054;52.054;8.600;2024-03-23T11:46:44;15.90;58.90
51029;DHT22;37054;52.054;8.600;2024-03-23T11:49:29;15.60;60.20
51029;DHT22;37054;52.054;8.600;2024-03-23T11:51:56;15.40;61.80
51029;DHT22;37054;52.054;8.600;2024-03-23T11:54:25;15.30;62.80
51029;DHT22;37054;52.054;8.600;2024-03-23T11:57:03;15.20;63.30
51029;DHT22;37054;52.054;8.600;2024-03-23T11:59:40;15.10;63.40
51029;DHT22;37054;52.054;8.600;2024-03-23T12:02:10;14.90;63.60
51029;DHT22;37054;52.054;8.600;2024-03-23T12:04:40;14.90;65.20
51029;DHT22;37054;52.054;8.600;2024-03-23T12:07:19;15.20;67.90
51029;DHT22;37054;52.054;8.600;2024-03-23T12:09:46;15.50;68.10
51029;DHT22;37054;52.054;8.600;2024-03-23T12:12:16;15.70;67.40
51029;DHT22;37054;52.054;8.600;2024-03-23T12:15:00;15.80;66.90
51029;DHT22;37054;52.054;8.600;2024-03-23T12:17:26;15.80;66.60
51029;DHT22;37054;52.054;8.600;2024-03-23T12:19:52;15.80;67.20
51029;DHT22;37054;52.054;8.600;2024-03-23T12:22:20;16.00;67.60
51029;DHT22;37054;52.054;8.600;2024-03-23T12:24:46;16.10;67.00
51029;DHT22;37054;52.054;8.600;2024-03-23T12:27:11;16.10;66.40
51029;DHT22;37054;52.054;8.600;2024-03-23T12:29:37;16.10;66.40
51029;DHT22;37054;52.054;8.600;2024-03-23T12:32:05;16.30;67.10
51029;DHT22;37054;52.054;8.600;2024-03-23T12:34:30;16.60;67.70
51029;DHT22;37054;52.054;8.600;2024-03-23T12:36:56;16.70;67.30
51029;DHT22;37054;52.054;8.600;2024-03-23T12:39:22;16.70;66.90
51029;DHT22;37054;52.054;8.600;2024-03-23T12:41:48;16.60;65.00
51029;DHT22;37054;52.054;8.600;2024-03-23T12:44:14;16.20;61.20
51029;DHT22;37054;52.054;8.600;2024-03-23T12:46:44;16.00;62.30
51029;DHT22;37054;52.054;8.600;2024-03-23T12:49:10;16.00;63.70
51029;DHT22;37054;52.054;8.600;2024-03-23T12:51:36;16.20;65.30
51029;DHT22;37054;52.054;8.600;2024-03-23T12:54:02;16.40;65.90
51029;DHT22;37054;52.054;8.600;2024-03-23T12:56:28;16.60;64.80
51029;DHT22;37054;52.054;8.600;2024-03-23T12:58:54;16.70;64.40
51029;DHT22;37054;52.054;8.600;2024-03-23T13:01:21;16.70;64.70
51029;DHT22;37054;52.054;8.600;2024-03-23T13:03:47;16.70;64.70
51029;DHT22;37054;52.054;8.600;2024-03-23T13:06:13;16.70;63.50
51029;DHT22;37054;52.054;8.600;2024-03-23T13:08:39;16.70;64.20
51029;DHT22;37054;52.054;8.600;2024-03-23T13:11:06;16.70;64.40
51029;DHT22;37054;52.054;8.600;2024-03-23T13:13:37;16.70;64.40
51029;DHT22;37054;52.054;8.600;2024-03-23T13:16:03;16.80;64.40
51029;DHT22;37054;52.054;8.600;2024-03-23T13:18:29;16.80;64.10
51029;DHT22;37054;52.054;8.600;2024-03-23T13:20:55;17.00;63.30
51029;DHT22;37054;52.054;8.600;2024-03-23T13:23:21;16.90;63.10
51029;DHT22;37054;52.054;8.600;2024-03-23T13:25:51;16.80;58.40
51029;DHT22;37054;52.054;8.600;2024-03-23T13:28:18;16.20;57.50
51029;DHT22;37054;52.054;8.600;2024-03-23T13:33:17;15.40;57.80
51029;DHT22;37054;52.054;8.600;2024-03-23T13:35:49;15.10;57.20
51029;DHT22;37054;52.054;8.600;2024-03-23T13:38:15;14.70;57.40
51029;DHT22;37054;52.054;8.600;2024-03-23T13:40:52;14.50;59.30
51029;DHT22;37054;52.054;8.600;2024-03-23T13:43:17;14.30;59.00
51029;DHT22;37054;52.054;8.600;2024-03-23T13:45:43;14.10;59.60
51029;DHT22;37054;52.054;8.600;2024-03-23T13:48:08;13.90;60.50
51029;DHT22;37054;52.054;8.600;2024-03-23T13:50:34;13.80;62.00
51029;DHT22;37054;52.054;8.600;2024-03-23T13:53:00;13.60;62.50
51029;DHT22;37054;52.054;8.600;2024-03-23T13:55:25;13.30;63.20
51029;DHT22;37054;52.054;8.600;2024-03-23T13:57:51;13.20;64.00
51029;DHT22;37054;52.054;8.600;2024-03-23T14:00:16;13.00;64.50
51029;DHT22;37054;52.054;8.600;2024-03-23T14:02:44;12.90;65.00
51029;DHT22;37054;52.054;8.600;2024-03-23T14:05:09;12.90;66.10
51029;DHT22;37054;52.054;8.600;2024-03-23T14:07:36;13.00;67.20
51029;DHT22;37054;52.054;8.600;2024-03-23T14:10:05;13.10;67.90
51029;DHT22;37054;52.054;8.600;2024-03-23T14:12:36;13.30;68.40
51029;DHT22;37054;52.054;8.600;2024-03-23T14:15:05;13.40;68.20
51029;DHT22;37054;52.054;8.600;2024-03-23T14:17:31;13.60;68.40
51029;DHT22;37054;52.054;8.600;2024-03-23T14:19:56;13.80;69.30
51029;DHT22;37054;52.054;8.600;2024-03-23T14:22:26;14.10;69.60
51029;DHT22;37054;52.054;8.600;2024-03-23T14:24:52;14.30;69.20
51029;DHT22;37054;52.054;8.600;2024-03-23T14:27:18;14.40;68.60
51029;DHT22;37054;52.054;8.600;2024-03-23T14:29:46;14.50;68.40
51029;DHT22;37054;52.054;8.600;2024-03-23T14:32:12;14.40;67.70
51029;DHT22;37054;52.054;8.600;2024-03-23T14:34:37;13.90;57.70
51029;DHT22;37054;52.054;8.600;2024-03-23T14:37:03;12.70;53.50
51029;DHT22;37054;52.054;8.600;2024-03-23T14:39:29;11.60;54.60
51029;DHT22;37054;52.054;8.600;2024-03-23T14:41:55;10.70;56.40
51029;DHT22;37054;52.054;8.600;2024-03-23T14:44:21;10.30;58.20
51029;DHT22;37054;52.054;8.600;2024-03-23T14:46:47;9.90;59.40
51029;DHT22;37054;52.054;8.600;2024-03-23T14:49:16;9.60;61.10
51029;DHT22;37054;52.054;8.600;2024-03-23T14:51:42;9.60;62.80
51029;DHT22;37054;52.054;8.600;2024-03-23T14:54:07;9.60;64.40
51029;DHT22;37054;52.054;8.600;2024-03-23T14:56:33;9.80;64.70
51029;DHT22;37054;52.054;8.600;2024-03-23T14:59:00;9.90;64.90
51029;DHT22;37054;52.054;8.600;2024-03-23T15:01:25;10.00;64.90
51029;DHT22;37054;52.054;8.600;2024-03-23T15:03:51;10.00;64.80
51029;DHT22;37054;52.054;8.600;2024-03-23T15:06:18;10.00;64.90
51029;DHT22;37054;52.054;8.600;2024-03-23T15:08:44;10.10;64.70
51029;DHT22;37054;52.054;8.600;2024-03-23T15:11:09;10.10;65.00
51029;DHT22;37054;52.054;8.600;2024-03-23T15:13:36;10.10;64.90
51029;DHT22;37054;52.054;8.600;2024-03-23T15:16:02;10.10;64.40
51029;DHT22;37054;52.054;8.600;2024-03-23T15:18:31;10.10;64.50
51029;DHT22;37054;52.054;8.600;2024-03-23T15:21:01;10.00;64.80
51029;DHT22;37054;52.054;8.600;2024-03-23T15:23:37;10.00;64.80
51029;DHT22;37054;52.054;8.600;2024-03-23T15:26:03;10.00;65.40
51029;DHT22;37054;52.054;8.600;2024-03-23T15:28:31;10.10;66.30
51029;DHT22;37054;52.054;8.600;2024-03-23T15:31:05;10.30;67.10
51029;DHT22;37054;52.054;8.600;2024-03-23T15:33:31;10.60;67.20
51029;DHT22;37054;52.054;8.600;2024-03-23T15:36:00;10.70;67.30
51029;DHT22;37054;52.054;8.600;2024-03-23T15:38:26;10.90;66.60
51029;DHT22;37054;52.054;8.600;2024-03-23T15:40:52;10.90;66.40
51029;DHT22;37054;52.054;8.600;2024-03-23T15:43:18;10.90;66.20
51029;DHT22;37054;52.054;8.600;2024-03-23T15:45:43;10.90;65.90
51029;DHT22;37054;52.054;8.600;2024-03-23T15:48:09;10.90;65.90
51029;DHT22;37054;52.054;8.600;2024-03-23T15:50:35;10.80;66.00
51029;DHT22;37054;52.054;8.600;2024-03-23T15:53:01;10.90;66.10
51029;DHT22;37054;52.054;8.600;2024-03-23T15:55:28;10.80;66.00
51029;DHT22;37054;52.054;8.600;2024-03-23T15:57:53;10.90;65.80
51029;DHT22;37054;52.054;8.600;2024-03-23T16:00:19;10.80;66.40
51029;DHT22;37054;52.054;8.600;2024-03-23T16:02:44;10.90;66.30
51029;DHT22;37054;52.054;8.600;2024-03-23T16:05:11;10.90;66.50
51029;DHT22;37054;52.054;8.600;2024-03-23T16:07:37;10.90;66.50
51029;DHT22;37054;52.054;8.600;2024-03-23T16:10:05;11.00;66.90
51029;DHT22;37054;52.054;8.600;2024-03-23T16:12:34;11.00;66.90
51029;DHT22;37054;52.054;8.600;2024-03-23T16:15:00;11.10;67.30
51029;DHT22;37054;52.054;8.600;2024-03-23T16:17:25;11.10;67.60
51029;DHT22;37054;52.054;8.600;2024-03-23T16:19:51;11.20;67.50
51029;DHT22;37054;52.054;8.600;2024-03-23T16:22:16;11.20;67.60
51029;DHT22;37054;52.054;8.600;2024-03-23T16:24:42;11.30;67.90
51029;DHT22;37054;52.054;8.600;2024-03-23T16:27:07;11.40;68.00